createdAt,value
2019-02-09T00:04:14.930Z,2.18
2019-02-09T00:09:23.400Z,2.49
2019-02-09T00:14:32.141Z,2.64
2019-02-09T00:19:40.653Z,2.75
2019-02-09T00:24:49.264Z,2.55
2019-02-09T00:29:57.774Z,2.41
2019-02-09T00:35:06.615Z,2.42
2019-02-09T00:40:15.064Z,2.33
2019-02-09T00:45:23.912Z,2.41
2019-02-09T00:50:32.409Z,2.45
2019-02-09T00:55:41.623Z,2.68
2019-02-09T01:00:50.021Z,2.55
2019-02-09T01:05:58.886Z,2.62
2019-02-09T01:11:07.418Z,2.33
2019-02-09T01:16:16.268Z,2.51
2019-02-09T01:21:24.736Z,2.52
2019-02-09T01:26:33.609Z,2.48
2019-02-09T01:31:42.249Z,2.32
2019-02-09T01:36:51.127Z,2.47
2019-02-09T01:41:59.637Z,2.54
2019-02-09T01:47:08.370Z,2.69
2019-02-09T01:52:17.019Z,2.67
2019-02-09T01:57:25.788Z,2.37
2019-02-09T02:02:34.928Z,2.36
2019-02-09T02:07:44.185Z,2.44
2019-02-09T02:12:59.336Z,2.79
2019-02-09T02:17:58.185Z,2.29
2019-02-09T02:23:07.185Z,2.70
2019-02-09T02:28:16.059Z,2.40
2019-02-09T02:33:24.644Z,2.45
2019-02-09T02:38:33.509Z,2.49
2019-02-09T02:43:41.981Z,2.37
2019-02-09T02:48:50.664Z,2.30
2019-02-09T02:53:59.233Z,2.25
2019-02-09T02:59:07.922Z,2.37
2019-02-09T03:04:16.356Z,2.26
2019-02-09T03:09:25.361Z,2.45
2019-02-09T03:14:33.804Z,2.35
2019-02-09T03:19:42.597Z,2.17
2019-02-09T03:24:51.036Z,2.44
2019-02-09T03:29:59.768Z,2.29
2019-02-09T03:35:08.902Z,2.46
2019-02-09T03:40:18.128Z,2.28
2019-02-09T03:45:26.477Z,2.51
2019-02-09T03:50:35.644Z,2.30
2019-02-09T03:55:44.462Z,2.10
2019-02-09T04:00:55.483Z,2.01
2019-02-09T04:06:02.174Z,2.26
2019-02-09T04:11:11.134Z,2.18
2019-02-09T04:16:19.513Z,2.16
2019-02-09T04:21:28.195Z,2.30
2019-02-09T04:26:36.543Z,2.65
2019-02-09T04:31:45.348Z,2.27
2019-02-09T04:36:53.708Z,2.58
2019-02-09T04:42:02.968Z,2.75
2019-02-09T04:47:11.482Z,2.47
2019-02-09T04:52:20.240Z,2.62
2019-02-09T04:57:28.851Z,2.51
2019-02-09T05:02:38.570Z,2.71
2019-02-09T05:07:46.956Z,2.56
2019-02-09T05:12:55.656Z,2.75
2019-02-09T05:18:04.077Z,2.69
2019-02-09T05:23:13.354Z,2.61
2019-02-09T05:28:21.812Z,2.29
2019-02-09T05:33:30.703Z,2.37
2019-02-09T05:38:39.076Z,2.28
2019-02-09T05:43:48.224Z,2.03
2019-02-09T05:48:57.292Z,2.12
2019-02-09T05:54:06.501Z,1.76
2019-02-09T05:59:15.494Z,1.50
2019-02-09T06:04:24.946Z,1.18
2019-02-09T06:09:33.832Z,1.01
2019-02-09T06:14:42.670Z,1.14
2019-02-09T06:19:51.708Z,1.15
2019-02-09T06:25:00.605Z,1.26
2019-02-09T06:30:09.212Z,1.10
2019-02-09T06:35:18.271Z,1.54
2019-02-09T06:40:27.983Z,1.47
2019-02-09T06:45:36.665Z,1.49
2019-02-09T06:50:45.100Z,1.57
2019-02-09T06:55:53.832Z,1.72
2019-02-09T07:01:02.665Z,1.79
2019-02-09T07:06:11.203Z,1.81
2019-02-09T07:11:19.536Z,1.72
2019-02-09T07:16:28.415Z,1.24
2019-02-09T07:21:36.966Z,1.32
2019-02-09T07:26:45.802Z,1.30
2019-02-09T07:31:56.583Z,1.59
2019-02-09T07:37:02.765Z,1.07
2019-02-09T07:42:11.372Z,1.68
2019-02-09T07:47:20.178Z,1.20
2019-02-09T07:52:28.851Z,1.18
2019-02-09T07:57:38.123Z,1.36
2019-02-09T08:02:46.706Z,1.27
2019-02-09T08:07:57.018Z,1.33
2019-02-09T08:12:55.703Z,1.50
2019-02-09T08:18:04.728Z,1.14
2019-02-09T08:23:15.002Z,1.49
2019-02-09T08:28:13.324Z,1.27
2019-02-09T08:33:22.138Z,1.38
2019-02-09T08:38:30.618Z,1.31
2019-02-09T08:43:39.551Z,1.38
2019-02-09T08:48:48.083Z,1.40
2019-02-09T08:53:56.929Z,1.61
2019-02-09T08:59:05.997Z,1.60
2019-02-09T09:04:15.282Z,1.15
2019-02-09T09:09:23.737Z,1.25
2019-02-09T09:14:32.759Z,1.22
2019-02-09T09:19:42.201Z,1.70
2019-02-09T09:24:51.290Z,1.17
2019-02-09T09:29:59.981Z,1.24
2019-02-09T09:35:08.899Z,1.17
2019-02-09T09:40:18.174Z,1.07
2019-02-09T09:45:27.088Z,1.44
2019-02-09T09:50:36.240Z,1.49
2019-02-09T09:55:45.246Z,1.63
2019-02-09T10:00:54.464Z,2.26
2019-02-09T10:06:03.400Z,1.94
2019-02-09T10:11:12.117Z,2.00
2019-02-09T10:16:21.105Z,2.00
2019-02-09T10:21:30.273Z,2.17
2019-02-09T10:26:39.309Z,1.64
2019-02-09T10:31:48.574Z,2.10
2019-02-09T10:36:57.633Z,2.50
2019-02-09T10:42:06.897Z,1.99
2019-02-09T10:47:16.034Z,2.09
2019-02-09T10:52:26.267Z,2.20
2019-02-09T10:57:25.436Z,2.46
2019-02-09T11:02:34.433Z,2.31
2019-02-09T11:07:43.797Z,2.37
2019-02-09T11:12:52.912Z,2.15
2019-02-09T11:18:03.974Z,2.05
2019-02-09T11:23:02.638Z,2.10
2019-02-09T11:28:11.585Z,2.18
2019-02-09T11:33:20.793Z,2.47
2019-02-09T11:38:29.184Z,2.46
2019-02-09T11:43:44.825Z,1.99
2019-02-09T11:48:44.725Z,2.68
2019-02-09T11:53:54.005Z,2.48
2019-02-09T11:59:03.288Z,2.00
2019-02-09T12:04:12.578Z,3.01
2019-02-09T12:09:21.763Z,2.61
2019-02-09T12:14:31.156Z,2.71
2019-02-09T12:19:40.157Z,2.44
2019-02-09T12:24:48.933Z,2.56
2019-02-09T12:29:57.940Z,2.40
2019-02-09T12:35:07.265Z,1.99
2019-02-09T12:40:16.341Z,2.29
2019-02-09T12:45:25.229Z,2.20
2019-02-09T12:50:33.539Z,1.85
2019-02-09T12:55:42.756Z,1.77
2019-02-09T13:00:51.691Z,1.65
2019-02-09T13:06:01.045Z,1.66
2019-02-09T13:11:09.567Z,1.75
2019-02-09T13:16:19.947Z,1.52
2019-02-09T13:21:18.946Z,1.98
2019-02-09T13:26:28.124Z,1.83
2019-02-09T13:31:36.939Z,1.57
2019-02-09T13:36:46.061Z,1.77
2019-02-09T13:41:55.518Z,1.76
2019-02-09T13:47:03.008Z,1.91
2019-02-09T13:52:12.519Z,2.22
2019-02-09T13:57:21.517Z,2.59
2019-02-09T14:02:35.254Z,2.48
2019-02-09T14:07:31.891Z,2.33
2019-02-09T14:12:40.860Z,2.00
2019-02-09T14:17:50.466Z,2.26
2019-02-09T14:22:59.412Z,2.55
2019-02-09T14:28:08.659Z,2.54
2019-02-09T14:33:17.954Z,2.65
2019-02-09T14:38:28.061Z,2.35
2019-02-09T14:43:27.274Z,2.46
2019-02-09T14:48:36.422Z,2.68
2019-02-09T14:53:45.710Z,2.74
2019-02-09T14:58:54.212Z,2.48
2019-02-09T15:04:03.392Z,2.19
2019-02-09T15:09:12.596Z,2.46
2019-02-09T15:14:20.409Z,2.02
2019-02-09T15:19:29.625Z,2.26
2019-02-09T15:24:38.561Z,2.38
2019-02-09T15:29:46.953Z,2.04
2019-02-09T15:34:55.933Z,2.20
2019-02-09T15:40:05.082Z,2.10
2019-02-09T15:45:13.958Z,2.44
2019-02-09T15:50:23.697Z,2.35
2019-02-09T15:55:32.204Z,2.16
2019-02-09T16:00:41.155Z,2.25
2019-02-09T16:05:49.658Z,2.69
2019-02-09T16:10:58.398Z,2.55
2019-02-09T16:16:06.901Z,2.34
2019-02-09T16:21:15.661Z,3.18
2019-02-09T16:26:24.313Z,2.96
2019-02-09T16:36:42.631Z,2.15
2019-02-09T16:41:51.058Z,2.37
2019-02-09T16:46:59.802Z,2.21
2019-02-09T16:52:08.224Z,2.42
2019-02-09T16:57:16.917Z,2.21
2019-02-09T17:02:25.571Z,2.22
2019-02-09T17:07:33.410Z,2.24
2019-02-09T17:12:41.708Z,2.07
2019-02-09T17:17:50.748Z,2.04
2019-02-09T17:22:59.242Z,1.96
2019-02-09T17:28:58.923Z,2.61
2019-02-09T17:34:07.309Z,2.47
2019-02-09T17:39:16.120Z,2.01
2019-02-09T17:44:24.513Z,2.44
2019-02-09T17:49:33.383Z,2.27
2019-02-09T17:54:41.823Z,2.24
2019-02-09T17:59:50.565Z,2.39
2019-02-09T18:04:59.248Z,2.27
2019-02-09T18:10:08.614Z,2.30
2019-02-09T18:15:21.614Z,2.42
2019-02-09T18:20:20.026Z,2.40
2019-02-09T18:25:29.278Z,2.31
2019-02-09T18:30:36.861Z,2.56
2019-02-09T18:35:45.289Z,2.68
2019-02-09T18:40:54.221Z,2.73
2019-02-09T18:46:02.642Z,2.49
2019-02-09T18:51:11.541Z,2.32
2019-02-09T18:56:20.456Z,2.48
2019-02-09T19:01:29.700Z,3.12
2019-02-09T19:06:38.050Z,2.79
2019-02-09T19:11:46.680Z,2.73
2019-02-09T19:16:55.068Z,2.68
2019-02-09T19:22:04.667Z,2.68
2019-02-09T19:27:13.084Z,2.45
2019-02-09T19:32:21.848Z,2.76
2019-02-09T19:37:30.229Z,2.69
2019-02-09T19:42:39.669Z,2.25
2019-02-09T19:47:48.018Z,2.36
2019-02-09T19:52:56.768Z,2.68
2019-02-09T19:58:05.166Z,2.92
2019-02-09T20:03:14.936Z,2.57
2019-02-09T20:08:23.292Z,2.72
2019-02-09T20:13:32.127Z,2.72
2019-02-09T20:18:40.479Z,2.67
2019-02-09T20:23:50.216Z,2.98
2019-02-09T20:28:59.203Z,3.01
2019-02-09T20:34:07.666Z,2.67
2019-02-09T20:39:16.016Z,3.13
2019-02-09T20:44:25.007Z,3.22
2019-02-09T20:49:33.417Z,3.12
2019-02-09T20:54:42.257Z,2.74
2019-02-09T21:00:04.643Z,3.48
2019-02-09T21:05:03.446Z,3.42
2019-02-09T21:10:12.360Z,3.14
2019-02-09T21:15:21.647Z,3.03
2019-02-09T21:20:30.543Z,3.49
2019-02-09T21:25:39.809Z,3.04
2019-02-09T21:30:48.660Z,3.59
2019-02-09T21:35:59.302Z,3.31
2019-02-09T21:40:57.708Z,3.09
2019-02-09T21:46:06.277Z,3.18
2019-02-09T21:51:15.114Z,3.51
2019-02-09T21:56:23.544Z,3.26
2019-02-09T22:01:32.235Z,3.47
2019-02-09T22:06:40.717Z,3.15
2019-02-09T22:11:55.344Z,3.60
2019-02-09T22:16:53.769Z,3.80
2019-02-09T22:22:02.339Z,3.62
2019-02-09T22:27:11.236Z,3.72
2019-02-09T22:32:19.826Z,3.31
2019-02-09T22:37:29.247Z,3.83
2019-02-09T22:42:37.619Z,3.64
2019-02-09T22:47:47.124Z,3.73
2019-02-09T22:52:55.606Z,3.70
2019-02-09T22:58:04.476Z,3.28
2019-02-09T23:03:13.003Z,3.44
2019-02-09T23:08:21.872Z,3.74
2019-02-09T23:13:30.290Z,3.45
2019-02-09T23:18:38.912Z,3.38
2019-02-09T23:23:47.556Z,3.80
2019-02-09T23:28:56.392Z,3.62
2019-02-09T23:34:04.773Z,3.13
2019-02-09T23:39:13.739Z,3.70
2019-02-09T23:44:22.241Z,3.50
2019-02-09T23:49:31.069Z,3.66
2019-02-09T23:54:39.561Z,3.40
2019-02-09T23:59:48.567Z,3.15
